createdAt,value
2022-11-20T00:00:48.563Z,6.41
2022-11-20T00:01:49.805Z,6.53
2022-11-20T00:02:50.149Z,6.52
2022-11-20T00:03:50.358Z,6.54
2022-11-20T00:04:51.285Z,6.44
2022-11-20T00:05:52.485Z,6.56
2022-11-20T00:06:53.098Z,6.54
2022-11-20T00:07:53.464Z,6.64
2022-11-20T00:08:54.057Z,6.62
2022-11-20T00:09:54.566Z,6.59
2022-11-20T00:10:54.767Z,6.54
2022-11-20T00:11:55.762Z,6.56
2022-11-20T00:12:55.965Z,6.64
2022-11-20T00:13:56.167Z,6.49
2022-11-20T00:14:56.374Z,6.54
2022-11-20T00:15:56.608Z,6.56
2022-11-20T00:16:56.519Z,6.62
2022-11-20T00:17:57.188Z,6.62
2022-11-20T00:18:58.123Z,6.5
2022-11-20T00:19:58.065Z,6.52
2022-11-20T00:20:59.275Z,6.5
2022-11-20T00:21:59.989Z,6.44
2022-11-20T00:23:00.928Z,6.6
2022-11-20T00:24:01.843Z,6.54
2022-11-20T00:25:02.465Z,6.46
2022-11-20T00:26:03.375Z,6.56
2022-11-20T00:27:03.294Z,6.43
2022-11-20T00:28:04.201Z,6.5
2022-11-20T00:29:05.131Z,6.54
2022-11-20T00:30:05.565Z,6.54
2022-11-20T00:31:06.185Z,6.56
2022-11-20T00:32:07.184Z,6.6
2022-11-20T00:33:07.672Z,6.59
2022-11-20T00:34:07.608Z,6.62
2022-11-20T00:35:08.536Z,6.5
2022-11-20T00:36:09.443Z,6.57
2022-11-20T00:37:10.392Z,6.52
2022-11-20T00:38:11.011Z,6.49
2022-11-20T00:39:11.229Z,6.49
2022-11-20T00:40:11.543Z,6.53
2022-11-20T00:41:12.163Z,6.52
2022-11-20T00:42:12.711Z,6.46
2022-11-20T00:43:14.200Z,6.56
2022-11-20T00:44:14.139Z,6.62
2022-11-20T00:45:15.352Z,6.53
2022-11-20T00:46:15.984Z,6.47
2022-11-20T00:47:15.894Z,6.47
2022-11-20T00:48:16.805Z,6.52
2022-11-20T00:49:17.285Z,6.47
2022-11-20T00:50:17.826Z,6.5
2022-11-20T00:51:18.747Z,6.5
2022-11-20T00:52:19.760Z,6.54
2022-11-20T00:53:19.915Z,6.56
2022-11-20T00:54:20.519Z,6.46
2022-11-20T00:55:21.717Z,6.52
2022-11-20T00:56:22.127Z,6.56
2022-11-20T00:57:23.333Z,6.57
2022-11-20T00:58:24.270Z,6.56
2022-11-20T00:59:25.434Z,6.44
2022-11-20T01:00:25.349Z,6.44
2022-11-20T01:01:27.443Z,6.47
2022-11-20T01:02:27.786Z,6.5
2022-11-20T01:03:32.726Z,6.43
2022-11-20T01:04:29.058Z,6.47
2022-11-20T01:05:29.993Z,6.49
2022-11-20T01:06:30.639Z,6.46
2022-11-20T01:07:31.841Z,6.39
2022-11-20T01:08:32.010Z,6.38
2022-11-20T01:09:32.188Z,6.32
2022-11-20T01:10:32.821Z,6.25
2022-11-20T01:11:33.858Z,6.2
2022-11-20T01:12:34.563Z,6.31
2022-11-20T01:13:35.050Z,6.17
2022-11-20T01:14:34.957Z,6.22
2022-11-20T01:15:35.849Z,6.25
2022-11-20T01:16:36.062Z,6.19
2022-11-20T01:17:36.545Z,6.25
2022-11-20T01:18:37.457Z,6.12
2022-11-20T01:19:37.347Z,6.16
2022-11-20T01:20:38.237Z,6.16
2022-11-20T01:21:39.138Z,6.17
2022-11-20T01:22:40.115Z,6.13
2022-11-20T01:23:40.720Z,6.26
2022-11-20T01:24:40.635Z,6.32
2022-11-20T01:25:41.840Z,6.28
2022-11-20T01:26:42.029Z,6.26
2022-11-20T01:27:42.647Z,6.28
2022-11-20T01:28:43.558Z,6.29
2022-11-20T01:29:44.447Z,6.32
2022-11-20T01:30:45.525Z,6.2
2022-11-20T01:31:45.439Z,6.34
2022-11-20T01:32:46.137Z,6.34
2022-11-20T01:33:46.032Z,6.38
2022-11-20T01:34:47.223Z,6.35
2022-11-20T01:35:47.404Z,6.36
2022-11-20T01:36:48.020Z,6.46
2022-11-20T01:37:47.660Z,6.41
2022-11-20T01:38:48.574Z,6.43
2022-11-20T01:39:49.506Z,6.47
2022-11-20T01:40:49.990Z,6.49
2022-11-20T01:41:50.198Z,6.44
2022-11-20T01:42:50.484Z,6.47
2022-11-20T01:43:51.969Z,6.52
2022-11-20T01:44:52.450Z,6.46
2022-11-20T01:45:53.118Z,6.59
2022-11-20T01:46:54.044Z,6.59
2022-11-20T01:47:54.960Z,6.46
2022-11-20T01:48:55.296Z,6.59
2022-11-20T01:49:56.801Z,6.59
2022-11-20T01:50:57.283Z,6.46
2022-11-20T01:51:57.176Z,6.6
2022-11-20T01:52:57.580Z,6.47
2022-11-20T01:53:57.904Z,6.57
2022-11-20T01:54:58.796Z,6.59
2022-11-20T01:55:59.425Z,6.59
2022-11-20T01:57:00.335Z,6.46
2022-11-20T01:58:00.264Z,6.57
2022-11-20T01:59:00.447Z,6.52
2022-11-20T02:00:01.331Z,6.46
2022-11-20T02:01:02.111Z,6.41
2022-11-20T02:02:02.551Z,6.46
2022-11-20T02:03:03.238Z,6.47
2022-11-20T02:04:03.886Z,6.52
2022-11-20T02:05:04.369Z,6.49
2022-11-20T02:06:04.704Z,6.49
2022-11-20T02:07:05.431Z,6.52
2022-11-20T02:08:06.521Z,6.44
2022-11-20T02:09:07.415Z,6.47
2022-11-20T02:10:08.794Z,6.49
2022-11-20T02:11:09.007Z,6.46
2022-11-20T02:12:09.924Z,6.44
2022-11-20T02:13:10.333Z,6.44
2022-11-20T02:14:10.932Z,6.46
2022-11-20T02:15:12.144Z,6.5
2022-11-20T02:16:12.575Z,6.52
2022-11-20T02:17:12.915Z,6.53
2022-11-20T02:18:13.826Z,6.54
2022-11-20T02:19:14.309Z,6.52
2022-11-20T02:20:14.528Z,6.49
2022-11-20T02:21:14.452Z,6.54
2022-11-20T02:22:15.084Z,6.46
2022-11-20T02:23:16.087Z,6.47
2022-11-20T02:24:16.578Z,6.52
2022-11-20T02:25:17.168Z,6.49
2022-11-20T02:26:17.945Z,6.54
2022-11-20T02:27:18.624Z,6.53
2022-11-20T02:28:19.655Z,6.59
2022-11-20T02:29:21.190Z,6.57
2022-11-20T02:30:20.238Z,6.52
2022-11-20T02:31:21.150Z,6.52
2022-11-20T02:32:22.036Z,6.47
2022-11-20T02:33:22.046Z,6.47
2022-11-20T02:34:23.236Z,6.46
2022-11-20T02:35:23.572Z,6.52
2022-11-20T02:36:24.464Z,6.46
2022-11-20T02:37:24.676Z,6.53
2022-11-20T02:38:25.581Z,6.57
2022-11-20T02:39:26.244Z,6.38
2022-11-20T02:40:27.154Z,6.54
2022-11-20T02:41:28.073Z,6.52
2022-11-20T02:42:27.705Z,6.49
2022-11-20T02:43:28.546Z,6.44
2022-11-20T02:44:30.025Z,6.47
2022-11-20T02:45:30.081Z,6.47
2022-11-20T02:46:30.710Z,6.43
2022-11-20T02:47:30.970Z,6.46
2022-11-20T02:48:34.783Z,6.44
2022-11-20T02:49:33.264Z,6.46
2022-11-20T02:50:34.154Z,6.38
2022-11-20T02:51:34.803Z,6.35
2022-11-20T02:52:35.419Z,6.34
2022-11-20T02:53:36.274Z,6.43
2022-11-20T02:54:36.909Z,6.34
2022-11-20T02:55:37.113Z,6.32
2022-11-20T02:56:37.452Z,6.32
2022-11-20T02:57:38.365Z,6.36
2022-11-20T02:58:39.258Z,6.39
2022-11-20T02:59:39.563Z,6.34
2022-11-20T03:00:40.051Z,6.34
2022-11-20T03:01:40.487Z,6.31
2022-11-20T03:02:40.243Z,6.32
2022-11-20T03:03:40.666Z,6.36
2022-11-20T03:04:41.278Z,6.39
2022-11-20T03:05:41.768Z,6.41
2022-11-20T03:06:42.683Z,6.34
2022-11-20T03:07:43.802Z,6.34
2022-11-20T03:08:43.483Z,6.34
2022-11-20T03:09:44.123Z,6.32
2022-11-20T03:10:45.316Z,6.32
2022-11-20T03:11:45.796Z,6.39
2022-11-20T03:12:46.429Z,6.29
2022-11-20T03:13:46.994Z,6.29
2022-11-20T03:14:53.569Z,6.31
2022-11-20T03:15:47.804Z,6.35
2022-11-20T03:16:48.154Z,6.2
2022-11-20T03:17:49.342Z,6.17
2022-11-20T03:18:49.261Z,6.17
2022-11-20T03:19:50.167Z,6.01
2022-11-20T03:20:51.368Z,5.97
2022-11-20T03:21:51.998Z,6.12
2022-11-20T03:22:52.890Z,6.13
2022-11-20T03:23:54.188Z,6.07
2022-11-20T03:24:54.395Z,6.12
2022-11-20T03:25:55.317Z,6.16
2022-11-20T03:26:55.226Z,6.13
2022-11-20T03:27:56.416Z,6.06
2022-11-20T03:28:57.327Z,6.07
2022-11-20T03:29:57.821Z,6.02
2022-11-20T03:30:58.039Z,6.05
2022-11-20T03:31:58.235Z,6.07
2022-11-20T03:32:58.581Z,6.09
2022-11-20T03:33:59.628Z,6.05
2022-11-20T03:34:59.514Z,6.07
2022-11-20T03:36:00.000Z,6.06
2022-11-20T03:36:59.960Z,6.05
2022-11-20T03:38:00.573Z,5.97
2022-11-20T03:39:01.486Z,6.05
2022-11-20T03:40:02.419Z,6.05
2022-11-20T03:41:03.630Z,6.12
2022-11-20T03:42:03.825Z,6.09
2022-11-20T03:43:04.016Z,5.91
2022-11-20T03:44:04.010Z,6.06
2022-11-20T03:45:04.641Z,6.06
2022-11-20T03:46:05.533Z,6.06
2022-11-20T03:47:06.144Z,6.1
2022-11-20T03:48:07.045Z,6.07
2022-11-20T03:49:07.534Z,6.07
2022-11-20T03:50:07.146Z,6.06
2022-11-20T03:51:08.335Z,6.05
2022-11-20T03:52:08.670Z,6.13
2022-11-20T03:53:09.857Z,6.1
2022-11-20T03:54:10.850Z,6.01
2022-11-20T03:55:10.752Z,6.01
2022-11-20T03:56:11.117Z,6.02
2022-11-20T03:57:12.617Z,6.12
2022-11-20T03:58:13.249Z,6.15
2022-11-20T03:59:14.431Z,6.22
2022-11-20T04:00:14.867Z,6.19
2022-11-20T04:01:15.587Z,6.25
2022-11-20T04:02:15.725Z,6.22
2022-11-20T04:03:15.957Z,6.35
2022-11-20T04:04:16.958Z,6.35
2022-11-20T04:05:17.442Z,6.19
2022-11-20T04:06:18.348Z,6.31
2022-11-20T04:07:19.074Z,6.22
2022-11-20T04:08:19.371Z,6.28
2022-11-20T04:09:20.529Z,6.17
2022-11-20T04:10:20.915Z,6.16
2022-11-20T04:11:22.104Z,6.05
2022-11-20T04:12:22.416Z,6.07
2022-11-20T04:13:23.334Z,5.92
2022-11-20T04:14:24.103Z,6.1
2022-11-20T04:15:24.731Z,6.01
2022-11-20T04:16:25.107Z,5.95
2022-11-20T04:17:25.586Z,5.98
2022-11-20T04:18:25.493Z,6.05
2022-11-20T04:19:26.655Z,5.95
2022-11-20T04:20:26.844Z,6.01
2022-11-20T04:21:27.459Z,5.91
2022-11-20T04:22:28.644Z,5.84
2022-11-20T04:23:34.495Z,5.99
2022-11-20T04:24:30.196Z,5.97
2022-11-20T04:25:29.820Z,5.95
2022-11-20T04:26:30.461Z,5.79
2022-11-20T04:27:31.650Z,5.92
2022-11-20T04:28:31.858Z,5.87
2022-11-20T04:29:32.042Z,5.9
2022-11-20T04:30:32.224Z,5.88
2022-11-20T04:31:32.136Z,5.9
2022-11-20T04:32:32.318Z,5.9
2022-11-20T04:33:38.614Z,5.79
2022-11-20T04:34:33.651Z,5.83
2022-11-20T04:35:34.544Z,5.76
2022-11-20T04:36:34.453Z,5.77
2022-11-20T04:37:35.081Z,5.81
2022-11-20T04:38:35.271Z,5.69
2022-11-20T04:39:36.202Z,5.7
2022-11-20T04:40:36.539Z,5.76
2022-11-20T04:41:36.854Z,5.77
2022-11-20T04:42:37.756Z,5.62
2022-11-20T04:43:38.086Z,5.58
2022-11-20T04:44:39.076Z,5.67
2022-11-20T04:45:40.003Z,5.65
2022-11-20T04:46:40.923Z,5.67
2022-11-20T04:47:41.543Z,5.67
2022-11-20T04:48:41.759Z,5.65
2022-11-20T04:49:41.804Z,5.64
2022-11-20T04:50:42.189Z,5.67
2022-11-20T04:51:42.824Z,5.67
2022-11-20T04:52:42.732Z,5.74
2022-11-20T04:53:43.922Z,5.61
2022-11-20T04:54:44.922Z,5.74
2022-11-20T04:55:45.812Z,5.72
2022-11-20T04:56:46.440Z,5.67
2022-11-20T04:57:47.641Z,5.81
2022-11-20T04:58:47.977Z,5.79
2022-11-20T04:59:48.688Z,5.76
2022-11-20T05:00:49.559Z,5.79
2022-11-20T05:01:49.929Z,5.84
2022-11-20T05:02:49.680Z,5.74
2022-11-20T05:03:50.290Z,5.88
2022-11-20T05:04:51.291Z,5.84
2022-11-20T05:05:51.476Z,5.87
2022-11-20T05:06:51.829Z,5.91
2022-11-20T05:07:52.280Z,5.9
2022-11-20T05:08:53.473Z,5.94
2022-11-20T05:09:53.656Z,5.92
2022-11-20T05:10:54.569Z,5.97
2022-11-20T05:11:57.691Z,5.92
2022-11-20T05:12:55.331Z,5.9
2022-11-20T05:13:56.693Z,5.94
2022-11-20T05:14:56.713Z,5.94
2022-11-20T05:15:56.840Z,5.95
2022-11-20T05:16:56.985Z,5.94
2022-11-20T05:17:57.186Z,5.92
2022-11-20T05:18:57.685Z,5.92
2022-11-20T05:19:59.279Z,5.97
2022-11-20T05:20:59.468Z,5.92
2022-11-20T05:21:59.081Z,5.9
2022-11-20T05:23:00.396Z,5.91
2022-11-20T05:24:00.705Z,5.95
2022-11-20T05:25:01.701Z,5.94
2022-11-20T05:26:05.347Z,5.95
2022-11-20T05:27:02.539Z,6.09
2022-11-20T05:28:03.134Z,5.95
2022-11-20T05:29:04.042Z,6.01
2022-11-20T05:30:04.951Z,6.01
2022-11-20T05:31:05.428Z,6.02
2022-11-20T05:32:06.064Z,6.07
2022-11-20T05:33:06.696Z,6.05
2022-11-20T05:34:07.612Z,6.02
2022-11-20T05:35:08.599Z,6.06
2022-11-20T05:36:08.918Z,6.06
2022-11-20T05:37:09.553Z,6.09
2022-11-20T05:38:10.172Z,6.06
2022-11-20T05:39:11.363Z,6.1
2022-11-20T05:40:11.591Z,6.09
2022-11-20T05:41:11.912Z,6.06
2022-11-20T05:42:12.830Z,6.05
2022-11-20T05:43:13.166Z,6.07
2022-11-20T05:44:14.655Z,5.94
2022-11-20T05:45:15.359Z,6.01
2022-11-20T05:46:16.003Z,5.88
2022-11-20T05:47:17.617Z,6.02
2022-11-20T05:48:17.809Z,5.95
2022-11-20T05:49:18.530Z,5.98
2022-11-20T05:50:18.840Z,5.94
2022-11-20T05:51:19.732Z,5.91
2022-11-20T05:52:20.643Z,6.02
2022-11-20T05:53:21.315Z,5.94
2022-11-20T05:54:21.314Z,5.81
2022-11-20T05:55:21.737Z,5.91
2022-11-20T05:56:22.938Z,5.95
2022-11-20T05:57:23.849Z,5.88
2022-11-20T05:58:23.762Z,5.91
2022-11-20T05:59:25.352Z,6.02
2022-11-20T06:00:24.969Z,5.94
2022-11-20T06:01:25.611Z,5.84
2022-11-20T06:02:26.633Z,5.94
2022-11-20T06:03:27.717Z,5.92
2022-11-20T06:04:28.054Z,5.87
2022-11-20T06:05:28.233Z,5.92
2022-11-20T06:06:28.872Z,5.83
2022-11-20T06:07:30.195Z,5.81
2022-11-20T06:08:30.063Z,5.83
2022-11-20T06:09:31.251Z,5.79
2022-11-20T06:10:31.191Z,5.76
2022-11-20T06:11:32.098Z,5.8
2022-11-20T06:12:32.283Z,5.79
2022-11-20T06:13:33.614Z,5.74
2022-11-20T06:14:34.249Z,5.79
2022-11-20T06:15:34.475Z,5.79
2022-11-20T06:16:34.792Z,5.81
2022-11-20T06:17:34.697Z,5.8
2022-11-20T06:18:35.585Z,5.81
2022-11-20T06:19:35.779Z,5.73
2022-11-20T06:20:42.407Z,5.8
2022-11-20T06:21:37.000Z,5.81
2022-11-20T06:22:37.208Z,5.77
2022-11-20T06:23:37.818Z,5.8
2022-11-20T06:24:38.720Z,5.77
2022-11-20T06:25:39.288Z,5.79
2022-11-20T06:26:40.199Z,5.76
2022-11-20T06:27:40.388Z,5.76
2022-11-20T06:28:40.733Z,5.76
2022-11-20T06:29:42.351Z,5.8
2022-11-20T06:30:42.392Z,5.79
2022-11-20T06:31:43.302Z,5.81
2022-11-20T06:32:43.916Z,5.74
2022-11-20T06:33:43.823Z,5.8
2022-11-20T06:34:44.733Z,5.69
2022-11-20T06:35:45.821Z,5.74
2022-11-20T06:36:46.231Z,5.76
2022-11-20T06:37:45.841Z,5.81
2022-11-20T06:38:46.177Z,5.79
2022-11-20T06:39:47.499Z,5.79
2022-11-20T06:40:48.119Z,5.81
2022-11-20T06:41:48.752Z,5.87
2022-11-20T06:42:49.514Z,5.73
2022-11-20T06:43:49.832Z,5.77
2022-11-20T06:44:51.129Z,5.8
2022-11-20T06:45:50.849Z,5.81
2022-11-20T06:46:51.333Z,5.74
2022-11-20T06:47:51.363Z,5.81
2022-11-20T06:48:52.271Z,5.8
2022-11-20T06:49:52.189Z,5.81
2022-11-20T06:50:53.109Z,5.83
2022-11-20T06:51:54.000Z,5.84
2022-11-20T06:52:54.846Z,5.8
2022-11-20T06:53:55.481Z,5.8
2022-11-20T06:54:56.097Z,5.83
2022-11-20T06:55:56.514Z,5.81
2022-11-20T06:56:57.126Z,5.81
2022-11-20T06:58:01.856Z,5.77
2022-11-20T06:58:59.076Z,5.81
2022-11-20T06:59:59.690Z,5.83
2022-11-20T07:01:00.383Z,5.84
2022-11-20T07:02:00.284Z,5.81
2022-11-20T07:03:01.473Z,5.91
2022-11-20T07:04:02.388Z,5.83
2022-11-20T07:05:02.734Z,5.83
2022-11-20T07:06:03.162Z,5.88
2022-11-20T07:07:04.529Z,5.79
2022-11-20T07:08:04.261Z,5.84
2022-11-20T07:09:12.941Z,5.88
2022-11-20T07:10:05.818Z,5.92
2022-11-20T07:11:06.313Z,5.87
2022-11-20T07:12:06.246Z,5.87
2022-11-20T07:13:06.501Z,6.02
2022-11-20T07:14:07.411Z,5.94
2022-11-20T07:15:08.341Z,5.98
2022-11-20T07:16:09.039Z,6.1
2022-11-20T07:17:09.967Z,6.07
2022-11-20T07:18:11.170Z,6.06
2022-11-20T07:19:11.578Z,6.06
2022-11-20T07:20:12.335Z,6.05
2022-11-20T07:21:11.948Z,6.15
2022-11-20T07:22:12.550Z,6.1
2022-11-20T07:23:13.768Z,6.12
2022-11-20T07:24:13.715Z,6.1
2022-11-20T07:25:14.390Z,6.12
2022-11-20T07:26:15.512Z,5.99
2022-11-20T07:27:16.419Z,6.07
2022-11-20T07:28:17.625Z,6.12
2022-11-20T07:29:17.545Z,6.05
2022-11-20T07:30:18.222Z,6.05
2022-11-20T07:31:24.706Z,5.92
2022-11-20T07:32:19.621Z,5.94
2022-11-20T07:33:20.118Z,5.91
2022-11-20T07:34:20.601Z,5.91
2022-11-20T07:35:20.808Z,5.91
2022-11-20T07:36:20.818Z,5.99
2022-11-20T07:37:21.300Z,6.02
2022-11-20T07:38:22.197Z,6.06
2022-11-20T07:39:23.035Z,6.02
2022-11-20T07:40:22.532Z,6.05
2022-11-20T07:41:23.518Z,5.97
2022-11-20T07:42:24.141Z,5.95
2022-11-20T07:43:24.634Z,6.06
2022-11-20T07:44:25.281Z,6.05
2022-11-20T07:45:25.200Z,6.12
2022-11-20T07:46:26.504Z,6.06
2022-11-20T07:47:27.296Z,6.13
2022-11-20T07:48:28.196Z,6.25
2022-11-20T07:49:28.339Z,6.35
2022-11-20T07:50:29.261Z,6.36
2022-11-20T07:51:30.172Z,6.46
2022-11-20T07:52:30.358Z,6.43
2022-11-20T07:53:30.847Z,6.52
2022-11-20T07:54:30.743Z,6.44
2022-11-20T07:55:30.938Z,6.64
2022-11-20T07:56:31.644Z,6.71
2022-11-20T07:57:34.545Z,6.89
2022-11-20T07:58:32.465Z,7.1
2022-11-20T07:59:33.653Z,7.22
2022-11-20T08:00:34.944Z,7.46
2022-11-20T08:01:35.133Z,7.8
2022-11-20T08:02:35.854Z,7.96
2022-11-20T08:03:36.494Z,8.06
2022-11-20T08:04:36.994Z,8.09
2022-11-20T08:05:36.897Z,8.14
2022-11-20T08:06:37.605Z,8.2
2022-11-20T08:07:37.382Z,8.18
2022-11-20T08:08:43.413Z,8.14
2022-11-20T08:09:38.606Z,8.17
2022-11-20T08:10:39.504Z,8.38
2022-11-20T08:11:39.846Z,8.72
2022-11-20T08:12:41.057Z,9.11
2022-11-20T08:13:41.703Z,9.24
2022-11-20T08:14:43.197Z,9.49
2022-11-20T08:15:43.408Z,9.73
2022-11-20T08:16:43.857Z,9.91
2022-11-20T08:18:29.234Z,9.99
2022-11-20T08:18:46.766Z,10.07
2022-11-20T08:19:47.268Z,10.18
2022-11-20T08:20:47.492Z,10.17
2022-11-20T08:21:47.688Z,10.12
2022-11-20T08:22:48.600Z,9.95
2022-11-20T08:23:48.520Z,9.85
2022-11-20T08:24:49.419Z,9.66
2022-11-20T08:25:50.050Z,9.49
2022-11-20T08:26:50.060Z,9.36
2022-11-20T08:27:50.983Z,9.21
2022-11-20T08:28:51.710Z,9.15
2022-11-20T08:29:52.375Z,9.12
2022-11-20T08:30:52.733Z,9
2022-11-20T08:31:53.919Z,8.99
2022-11-20T08:32:54.126Z,8.79
2022-11-20T08:33:54.476Z,8.82
2022-11-20T08:34:55.795Z,8.74
2022-11-20T08:35:56.696Z,8.6
2022-11-20T08:36:56.984Z,8.63
2022-11-20T08:37:57.484Z,8.59
2022-11-20T08:38:57.688Z,8.66
2022-11-20T08:39:58.622Z,8.61
2022-11-20T08:40:58.820Z,8.66
2022-11-20T08:41:59.734Z,8.63
2022-11-20T08:43:00.110Z,8.57
2022-11-20T08:44:01.341Z,8.52
2022-11-20T08:45:01.943Z,8.5
2022-11-20T08:46:02.586Z,8.63
2022-11-20T08:47:03.257Z,8.6
2022-11-20T08:48:04.793Z,8.75
2022-11-20T08:49:04.415Z,8.9
2022-11-20T08:50:05.032Z,9.02
2022-11-20T08:51:05.251Z,9.05
2022-11-20T08:52:06.167Z,9.13
2022-11-20T08:53:06.238Z,9.33
2022-11-20T08:54:06.473Z,9.37
2022-11-20T08:55:07.359Z,9.58
2022-11-20T08:56:07.846Z,9.72
2022-11-20T08:57:08.854Z,9.72
2022-11-20T08:58:09.049Z,9.76
2022-11-20T09:00:07.664Z,9.7
2022-11-20T09:00:25.594Z,9.7
2022-11-20T09:01:26.000Z,9.69
2022-11-20T09:02:26.383Z,9.72
2022-11-20T09:03:33.110Z,9.67
2022-11-20T09:04:28.355Z,9.74
2022-11-20T09:05:27.976Z,9.73
2022-11-20T09:06:29.169Z,9.9
2022-11-20T09:07:29.994Z,9.85
2022-11-20T09:08:30.331Z,9.9
2022-11-20T09:09:31.633Z,9.84
2022-11-20T09:10:31.695Z,9.9
2022-11-20T09:11:31.311Z,9.82
2022-11-20T09:12:32.281Z,9.97
2022-11-20T09:13:32.906Z,9.94
2022-11-20T09:14:33.808Z,10.02
2022-11-20T09:15:35.004Z,9.95
2022-11-20T09:16:35.491Z,10.12
2022-11-20T09:17:35.764Z,10.15
2022-11-20T09:18:35.644Z,10
2022-11-20T09:19:44.510Z,10.05
2022-11-20T09:20:37.376Z,9.99
2022-11-20T09:21:37.380Z,10.06
2022-11-20T09:22:37.826Z,10.1
2022-11-20T09:23:38.741Z,10.15
2022-11-20T09:24:38.951Z,10.17
2022-11-20T09:25:40.171Z,10.12
2022-11-20T09:26:40.812Z,10.13
2022-11-20T09:27:41.524Z,10.2
2022-11-20T09:28:42.131Z,10.27
2022-11-20T09:29:43.431Z,10.61
2022-11-20T09:30:44.029Z,10.64
2022-11-20T09:31:44.952Z,10.65
2022-11-20T09:32:45.858Z,10.68
2022-11-20T09:33:46.765Z,10.76
2022-11-20T09:34:46.687Z,10.83
2022-11-20T09:35:47.315Z,10.8
2022-11-20T09:36:48.234Z,10.8
2022-11-20T09:37:49.186Z,10.76
2022-11-20T09:38:49.442Z,10.86
2022-11-20T09:39:49.939Z,10.95
2022-11-20T09:40:49.855Z,11.16
2022-11-20T09:41:50.755Z,11.44
2022-11-20T09:42:50.966Z,11.55
2022-11-20T09:43:50.885Z,11.83
2022-11-20T09:44:52.113Z,12.07
2022-11-20T09:45:53.041Z,12.26
2022-11-20T09:46:53.530Z,12.53
2022-11-20T09:47:53.678Z,12.75
2022-11-20T09:48:54.294Z,12.83
2022-11-20T09:49:55.509Z,12.9
2022-11-20T09:50:55.703Z,12.93
2022-11-20T09:51:55.606Z,13.05
2022-11-20T09:52:56.802Z,13.12
2022-11-20T09:53:57.706Z,13.16
2022-11-20T09:54:57.899Z,13.23
2022-11-20T09:55:57.803Z,13.19
2022-11-20T09:56:58.746Z,13.17
2022-11-20T09:57:59.041Z,13.12
2022-11-20T09:58:59.964Z,13.09
2022-11-20T10:00:00.591Z,13.17
2022-11-20T10:01:01.305Z,13.26
2022-11-20T10:02:01.398Z,13.37
2022-11-20T10:03:01.317Z,13.57
2022-11-20T10:04:02.621Z,13.82
2022-11-20T10:05:02.738Z,14
2022-11-20T10:06:03.363Z,14.23
2022-11-20T10:07:36.036Z,14.59
2022-11-20T10:08:24.032Z,14.77
2022-11-20T10:09:24.960Z,15.11
2022-11-20T10:10:25.174Z,15.12
2022-11-20T10:11:25.622Z,14.96
2022-11-20T10:12:25.845Z,15.08
2022-11-20T10:13:26.772Z,14.97
2022-11-20T10:14:27.702Z,15
2022-11-20T10:15:28.056Z,14.99
2022-11-20T10:16:28.699Z,15.23
2022-11-20T10:17:29.056Z,15.52
2022-11-20T10:18:29.756Z,15.76
2022-11-20T10:19:30.403Z,15.83
2022-11-20T10:20:30.620Z,15.92
2022-11-20T10:21:30.970Z,16.03
2022-11-20T10:22:31.597Z,15.98
2022-11-20T10:23:32.281Z,16.13
2022-11-20T10:24:32.499Z,16.29
2022-11-20T10:25:32.403Z,16.37
2022-11-20T10:26:33.606Z,16.55
2022-11-20T10:27:33.956Z,16.51
2022-11-20T10:28:35.253Z,16.55
2022-11-20T10:29:35.582Z,16.62
2022-11-20T10:30:35.513Z,16.79
2022-11-20T10:31:36.718Z,16.66
2022-11-20T10:32:37.084Z,16.66
2022-11-20T10:34:13.115Z,16.86
2022-11-20T10:34:38.450Z,16.95
2022-11-20T10:35:39.368Z,17.22
2022-11-20T10:36:40.316Z,17.3
2022-11-20T10:37:40.961Z,17.49
2022-11-20T10:38:41.710Z,17.68
2022-11-20T10:39:42.344Z,17.88
2022-11-20T10:40:43.267Z,17.84
2022-11-20T10:41:43.500Z,17.87
2022-11-20T10:42:44.411Z,17.46
2022-11-20T10:43:45.343Z,16.83
2022-11-20T10:44:46.258Z,16.49
2022-11-20T10:45:46.555Z,16.17
2022-11-20T10:46:46.788Z,15.85
2022-11-20T10:47:47.717Z,15.37
2022-11-20T10:48:48.165Z,15.3
2022-11-20T10:49:48.819Z,15.19
2022-11-20T10:50:49.451Z,15.14
2022-11-20T10:51:50.080Z,15.02
2022-11-20T10:52:51.017Z,14.68
2022-11-20T10:53:51.961Z,14.41
2022-11-20T10:54:52.890Z,14.19
2022-11-20T10:55:53.397Z,13.97
2022-11-20T10:56:56.091Z,13.86
2022-11-20T10:57:54.601Z,13.61
2022-11-20T10:58:55.339Z,13.37
2022-11-20T10:59:55.556Z,13.23
2022-11-20T11:00:56.295Z,12.93
2022-11-20T11:01:57.345Z,12.66
2022-11-20T11:02:58.345Z,12.5
2022-11-20T11:03:58.549Z,12.29
2022-11-20T11:04:58.955Z,12.1
2022-11-20T11:05:59.663Z,11.89
2022-11-20T11:07:00.050Z,11.74
2022-11-20T11:08:00.557Z,11.56
2022-11-20T11:09:01.340Z,11.49
2022-11-20T11:10:01.563Z,11.37
2022-11-20T11:11:02.051Z,11.33
2022-11-20T11:12:07.589Z,11.25
2022-11-20T11:13:02.785Z,11.1
2022-11-20T11:14:03.411Z,11.07
2022-11-20T11:15:04.417Z,11
2022-11-20T11:16:05.623Z,10.92
2022-11-20T11:17:05.551Z,10.92
2022-11-20T11:18:05.914Z,10.89
2022-11-20T11:19:07.209Z,10.94
2022-11-20T11:20:07.027Z,10.86
2022-11-20T11:21:07.656Z,10.82
2022-11-20T11:22:08.621Z,10.75
2022-11-20T11:23:09.543Z,10.68
2022-11-20T11:24:43.673Z,10.51
2022-11-20T11:25:10.968Z,10.46
2022-11-20T11:26:11.181Z,10.51
2022-11-20T11:27:17.892Z,10.36
2022-11-20T11:28:11.877Z,10.45
2022-11-20T11:29:11.940Z,10.59
2022-11-20T11:30:11.855Z,10.65
2022-11-20T11:31:13.199Z,10.89
2022-11-20T11:32:13.557Z,10.89
2022-11-20T11:33:14.056Z,10.82
2022-11-20T11:34:14.657Z,10.94
2022-11-20T11:35:15.876Z,10.86
2022-11-20T11:36:15.775Z,10.84
2022-11-20T11:37:16.677Z,10.89
2022-11-20T11:38:16.884Z,10.89
2022-11-20T11:39:17.601Z,10.98
2022-11-20T11:40:33.802Z,10.92
2022-11-20T11:41:18.423Z,10.89
2022-11-20T11:42:18.367Z,11.04
2022-11-20T11:43:19.273Z,11.27
2022-11-20T11:44:19.489Z,11.45
2022-11-20T11:45:20.117Z,11.6
2022-11-20T11:46:21.326Z,11.63
2022-11-20T11:47:21.602Z,11.73
2022-11-20T11:48:22.230Z,11.85
2022-11-20T11:49:23.942Z,12
2022-11-20T11:50:23.305Z,12.23
2022-11-20T11:51:24.027Z,12.29
2022-11-20T11:52:24.373Z,12.43
2022-11-20T11:53:25.591Z,12.36
2022-11-20T11:54:25.405Z,12.37
2022-11-20T11:55:26.615Z,12.37
2022-11-20T11:56:26.670Z,12.28
2022-11-20T11:57:27.734Z,12.33
2022-11-20T11:58:28.379Z,12.37
2022-11-20T11:59:29.957Z,12.33
2022-11-20T12:00:30.194Z,12.48
2022-11-20T12:01:30.825Z,12.33
2022-11-20T12:02:31.357Z,12.28
2022-11-20T12:03:31.384Z,12.32
2022-11-20T12:04:32.050Z,12.47
2022-11-20T12:05:33.051Z,12.69
2022-11-20T12:06:33.950Z,12.81
2022-11-20T12:07:52.511Z,12.86
2022-11-20T12:08:35.536Z,12.83
2022-11-20T12:09:36.213Z,12.8
2022-11-20T12:10:37.412Z,12.8
2022-11-20T12:11:37.839Z,12.65
2022-11-20T12:12:38.762Z,12.87
2022-11-20T12:13:39.685Z,12.9
2022-11-20T12:14:39.587Z,13.01
2022-11-20T12:15:40.216Z,13.17
2022-11-20T12:16:41.126Z,13.19
2022-11-20T12:17:41.032Z,13.21
2022-11-20T12:18:40.958Z,13.11
2022-11-20T12:19:41.619Z,13.24
2022-11-20T12:20:42.728Z,13.26
2022-11-20T12:21:42.657Z,13.4
2022-11-20T12:22:42.484Z,13.42
2022-11-20T12:23:43.126Z,13.52
2022-11-20T12:24:43.946Z,13.62
2022-11-20T12:25:44.846Z,13.71
2022-11-20T12:26:45.769Z,13.68
2022-11-20T12:27:46.675Z,13.65
2022-11-20T12:28:46.734Z,13.61
2022-11-20T12:29:47.907Z,13.62
2022-11-20T12:30:48.527Z,13.61
2022-11-20T12:31:48.744Z,13.6
2022-11-20T12:32:49.369Z,13.73
2022-11-20T12:33:50.032Z,13.75
2022-11-20T12:34:50.952Z,13.83
2022-11-20T12:35:51.590Z,13.79
2022-11-20T12:36:52.232Z,13.71
2022-11-20T12:37:53.148Z,13.71
2022-11-20T12:38:54.075Z,13.73
2022-11-20T12:39:54.822Z,13.76
2022-11-20T12:40:55.045Z,13.8
2022-11-20T12:41:55.547Z,13.71
2022-11-20T12:42:55.191Z,13.79
2022-11-20T12:43:55.820Z,13.75
2022-11-20T12:44:56.749Z,13.83
2022-11-20T12:45:56.673Z,13.86
2022-11-20T12:46:57.091Z,13.95
2022-11-20T12:47:58.006Z,13.94
2022-11-20T12:48:57.928Z,13.97
2022-11-20T12:49:58.377Z,14.11
2022-11-20T12:51:20.396Z,14.19
2022-11-20T12:52:00.689Z,14.13
2022-11-20T12:53:00.605Z,14.19
2022-11-20T12:54:01.233Z,14.15
2022-11-20T12:55:01.607Z,14.18
2022-11-20T12:56:02.243Z,14.18
2022-11-20T12:57:08.814Z,14.33
2022-11-20T12:58:02.741Z,14.36
2022-11-20T12:59:03.936Z,14.41
2022-11-20T13:00:03.933Z,14.33
2022-11-20T13:01:05.009Z,14.34
2022-11-20T13:02:05.175Z,14.36
2022-11-20T13:03:05.780Z,14.41
2022-11-20T13:04:10.752Z,14.34
2022-11-20T13:05:07.072Z,14.41
2022-11-20T13:06:07.717Z,14.43
2022-11-20T13:07:08.367Z,14.43
2022-11-20T13:08:08.706Z,14.45
2022-11-20T13:09:08.902Z,14.44
2022-11-20T13:10:13.751Z,14.43
2022-11-20T13:11:09.690Z,14.31
2022-11-20T13:12:10.415Z,14.3
2022-11-20T13:13:11.040Z,14.26
2022-11-20T13:14:11.238Z,14.31
2022-11-20T13:15:11.902Z,14.38
2022-11-20T13:16:15.181Z,14.3
2022-11-20T13:17:12.114Z,14.22
2022-11-20T13:18:13.067Z,14.18
2022-11-20T13:19:13.997Z,14.13
2022-11-20T13:20:14.995Z,14.05
2022-11-20T13:21:15.204Z,14.01
2022-11-20T13:22:15.125Z,14.05